sensor_id;sensor_type;location;lat;lon;timestamp;P1;durP1;ratioP1;P2;durP2;ratioP2
75486;SDS011;65009;44.762;21.516;2023-02-28T00:00:47;30.60;;;17.70;;
75486;SDS011;65009;44.762;21.516;2023-02-28T00:03:14;211.03;;;102.33;;
75486;SDS011;65009;44.762;21.516;2023-02-28T00:05:40;257.00;;;120.27;;
75486;SDS011;65009;44.762;21.516;2023-02-28T00:08:07;127.80;;;71.97;;
75486;SDS011;65009;44.762;21.516;2023-02-28T00:10:33;156.57;;;79.20;;
75486;SDS011;65009;44.762;21.516;2023-02-28T00:13:01;69.47;;;37.93;;
75486;SDS011;65009;44.762;21.516;2023-02-28T00:15:28;48.40;;;27.30;;
75486;SDS011;65009;44.762;21.516;2023-02-28T00:17:54;58.00;;;33.17;;
75486;SDS011;65009;44.762;21.516;2023-02-28T00:20:20;91.67;;;52.53;;
75486;SDS011;65009;44.762;21.516;2023-02-28T00:22:50;92.03;;;50.53;;
75486;SDS011;65009;44.762;21.516;2023-02-28T00:25:18;114.57;;;66.63;;
75486;SDS011;65009;44.762;21.516;2023-02-28T00:27:44;78.53;;;42.60;;
75486;SDS011;65009;44.762;21.516;2023-02-28T00:30:12;74.87;;;41.67;;
75486;SDS011;65009;44.762;21.516;2023-02-28T00:32:38;51.33;;;25.93;;
75486;SDS011;65009;44.762;21.516;2023-02-28T00:35:04;78.57;;;36.63;;
75486;SDS011;65009;44.762;21.516;2023-02-28T00:37:31;79.33;;;41.17;;
75486;SDS011;65009;44.762;21.516;2023-02-28T00:39:57;39.37;;;21.77;;
75486;SDS011;65009;44.762;21.516;2023-02-28T00:42:23;34.53;;;19.80;;
75486;SDS011;65009;44.762;21.516;2023-02-28T00:44:50;31.97;;;19.97;;
75486;SDS011;65009;44.762;21.516;2023-02-28T00:47:16;49.93;;;29.77;;
75486;SDS011;65009;44.762;21.516;2023-02-28T00:49:42;30.03;;;19.03;;
75486;SDS011;65009;44.762;21.516;2023-02-28T00:52:08;66.77;;;38.70;;
75486;SDS011;65009;44.762;21.516;2023-02-28T00:54:35;66.67;;;37.40;;
75486;SDS011;65009;44.762;21.516;2023-02-28T00:57:01;50.93;;;29.67;;
75486;SDS011;65009;44.762;21.516;2023-02-28T00:59:27;40.33;;;23.77;;
75486;SDS011;65009;44.762;21.516;2023-02-28T01:01:53;41.17;;;25.33;;
75486;SDS011;65009;44.762;21.516;2023-02-28T01:04:19;46.73;;;27.70;;
75486;SDS011;65009;44.762;21.516;2023-02-28T01:06:45;57.40;;;32.10;;
75486;SDS011;65009;44.762;21.516;2023-02-28T01:09:12;74.10;;;40.83;;
75486;SDS011;65009;44.762;21.516;2023-02-28T01:11:38;63.70;;;33.77;;
75486;SDS011;65009;44.762;21.516;2023-02-28T01:14:06;66.83;;;35.50;;
75486;SDS011;65009;44.762;21.516;2023-02-28T01:16:32;67.20;;;35.70;;
75486;SDS011;65009;44.762;21.516;2023-02-28T01:18:59;57.97;;;31.57;;
75486;SDS011;65009;44.762;21.516;2023-02-28T01:21:25;61.17;;;32.23;;
75486;SDS011;65009;44.762;21.516;2023-02-28T01:23:51;54.83;;;30.17;;
75486;SDS011;65009;44.762;21.516;2023-02-28T01:26:21;47.00;;;28.13;;
75486;SDS011;65009;44.762;21.516;2023-02-28T01:28:48;53.40;;;29.53;;
75486;SDS011;65009;44.762;21.516;2023-02-28T01:31:14;64.67;;;36.00;;
75486;SDS011;65009;44.762;21.516;2023-02-28T01:33:41;64.13;;;34.30;;
75486;SDS011;65009;44.762;21.516;2023-02-28T01:36:11;70.40;;;36.73;;
75486;SDS011;65009;44.762;21.516;2023-02-28T01:38:37;61.43;;;33.33;;
75486;SDS011;65009;44.762;21.516;2023-02-28T01:41:04;63.23;;;31.70;;
75486;SDS011;65009;44.762;21.516;2023-02-28T01:46:09;63.90;;;33.53;;
75486;SDS011;65009;44.762;21.516;2023-02-28T01:48:40;61.43;;;33.67;;
75486;SDS011;65009;44.762;21.516;2023-02-28T01:51:12;69.55;;;36.33;;
75486;SDS011;65009;44.762;21.516;2023-02-28T01:56:06;65.13;;;33.50;;
75486;SDS011;65009;44.762;21.516;2023-02-28T01:58:33;58.03;;;32.00;;
75486;SDS011;65009;44.762;21.516;2023-02-28T02:01:00;61.87;;;31.93;;
75486;SDS011;65009;44.762;21.516;2023-02-28T02:03:28;56.27;;;30.97;;
75486;SDS011;65009;44.762;21.516;2023-02-28T02:05:55;63.30;;;31.97;;
75486;SDS011;65009;44.762;21.516;2023-02-28T02:08:21;62.83;;;33.80;;
75486;SDS011;65009;44.762;21.516;2023-02-28T02:10:50;61.10;;;33.77;;
75486;SDS011;65009;44.762;21.516;2023-02-28T02:18:46;54.00;;;29.67;;
75486;SDS011;65009;44.762;21.516;2023-02-28T02:34:23;55.83;;;29.70;;
75486;SDS011;65009;44.762;21.516;2023-02-28T02:37:08;58.15;;;31.65;;
75486;SDS011;65009;44.762;21.516;2023-02-28T02:39:47;62.57;;;36.23;;
75486;SDS011;65009;44.762;21.516;2023-02-28T02:42:16;57.10;;;34.30;;
75486;SDS011;65009;44.762;21.516;2023-02-28T02:44:47;51.40;;;29.50;;
75486;SDS011;65009;44.762;21.516;2023-02-28T02:47:15;47.73;;;27.00;;
75486;SDS011;65009;44.762;21.516;2023-02-28T02:49:46;45.90;;;28.00;;
75486;SDS011;65009;44.762;21.516;2023-02-28T02:52:15;111.65;;;66.88;;
75486;SDS011;65009;44.762;21.516;2023-02-28T02:54:43;102.87;;;62.43;;
75486;SDS011;65009;44.762;21.516;2023-02-28T02:57:13;55.73;;;31.63;;
75486;SDS011;65009;44.762;21.516;2023-02-28T02:59:40;47.63;;;27.67;;
75486;SDS011;65009;44.762;21.516;2023-02-28T03:02:08;55.10;;;29.33;;
75486;SDS011;65009;44.762;21.516;2023-02-28T03:04:38;45.97;;;26.40;;
75486;SDS011;65009;44.762;21.516;2023-02-28T03:07:06;45.47;;;25.07;;
75486;SDS011;65009;44.762;21.516;2023-02-28T03:09:33;48.50;;;27.30;;
75486;SDS011;65009;44.762;21.516;2023-02-28T03:12:00;53.03;;;28.00;;
75486;SDS011;65009;44.762;21.516;2023-02-28T03:14:40;52.87;;;28.37;;
75486;SDS011;65009;44.762;21.516;2023-02-28T03:20:01;53.17;;;28.20;;
75486;SDS011;65009;44.762;21.516;2023-02-28T03:24:57;56.23;;;29.80;;
75486;SDS011;65009;44.762;21.516;2023-02-28T03:27:29;54.50;;;30.08;;
75486;SDS011;65009;44.762;21.516;2023-02-28T03:32:24;51.90;;;29.43;;
75486;SDS011;65009;44.762;21.516;2023-02-28T03:35:00;55.53;;;30.03;;
75486;SDS011;65009;44.762;21.516;2023-02-28T03:37:29;52.47;;;27.60;;
75486;SDS011;65009;44.762;21.516;2023-02-28T03:40:00;51.87;;;28.97;;
75486;SDS011;65009;44.762;21.516;2023-02-28T03:42:29;54.27;;;29.90;;
75486;SDS011;65009;44.762;21.516;2023-02-28T03:44:58;63.17;;;33.97;;
75486;SDS011;65009;44.762;21.516;2023-02-28T03:47:27;68.73;;;35.37;;
75486;SDS011;65009;44.762;21.516;2023-02-28T03:49:57;67.73;;;35.30;;
75486;SDS011;65009;44.762;21.516;2023-02-28T03:52:25;78.20;;;38.60;;
75486;SDS011;65009;44.762;21.516;2023-02-28T03:54:54;76.50;;;38.87;;
75486;SDS011;65009;44.762;21.516;2023-02-28T03:59:49;66.40;;;32.83;;
75486;SDS011;65009;44.762;21.516;2023-02-28T04:02:18;71.50;;;36.00;;
75486;SDS011;65009;44.762;21.516;2023-02-28T04:04:44;62.60;;;32.43;;
75486;SDS011;65009;44.762;21.516;2023-02-28T04:07:13;61.00;;;32.40;;
75486;SDS011;65009;44.762;21.516;2023-02-28T04:09:40;55.00;;;28.73;;
75486;SDS011;65009;44.762;21.516;2023-02-28T04:12:06;54.47;;;28.43;;
75486;SDS011;65009;44.762;21.516;2023-02-28T04:14:33;52.20;;;26.87;;
75486;SDS011;65009;44.762;21.516;2023-02-28T04:16:59;68.63;;;33.90;;
75486;SDS011;65009;44.762;21.516;2023-02-28T04:19:25;79.17;;;39.33;;
75486;SDS011;65009;44.762;21.516;2023-02-28T04:21:52;85.20;;;42.07;;
75486;SDS011;65009;44.762;21.516;2023-02-28T04:24:25;89.63;;;44.93;;
75486;SDS011;65009;44.762;21.516;2023-02-28T04:26:53;83.93;;;42.60;;
75486;SDS011;65009;44.762;21.516;2023-02-28T04:29:26;67.90;;;37.43;;
75486;SDS011;65009;44.762;21.516;2023-02-28T04:31:53;72.13;;;39.00;;
75486;SDS011;65009;44.762;21.516;2023-02-28T04:34:21;83.10;;;48.50;;
75486;SDS011;65009;44.762;21.516;2023-02-28T04:36:48;110.97;;;64.00;;
75486;SDS011;65009;44.762;21.516;2023-02-28T04:39:16;91.03;;;50.03;;
75486;SDS011;65009;44.762;21.516;2023-02-28T04:41:43;83.63;;;45.80;;
75486;SDS011;65009;44.762;21.516;2023-02-28T04:44:10;118.73;;;68.17;;
75486;SDS011;65009;44.762;21.516;2023-02-28T04:46:36;122.73;;;70.17;;
75486;SDS011;65009;44.762;21.516;2023-02-28T04:49:02;100.10;;;55.07;;
75486;SDS011;65009;44.762;21.516;2023-02-28T04:51:28;132.47;;;74.83;;
75486;SDS011;65009;44.762;21.516;2023-02-28T04:53:55;94.53;;;54.83;;
75486;SDS011;65009;44.762;21.516;2023-02-28T04:56:21;94.37;;;55.50;;
75486;SDS011;65009;44.762;21.516;2023-02-28T04:58:47;85.13;;;48.43;;
75486;SDS011;65009;44.762;21.516;2023-02-28T05:01:16;92.37;;;49.37;;
75486;SDS011;65009;44.762;21.516;2023-02-28T05:03:43;80.23;;;43.80;;
75486;SDS011;65009;44.762;21.516;2023-02-28T05:06:09;72.77;;;39.83;;
75486;SDS011;65009;44.762;21.516;2023-02-28T05:08:36;70.33;;;38.70;;
75486;SDS011;65009;44.762;21.516;2023-02-28T05:11:02;86.27;;;47.17;;
75486;SDS011;65009;44.762;21.516;2023-02-28T05:13:29;98.33;;;56.10;;
75486;SDS011;65009;44.762;21.516;2023-02-28T05:15:55;119.33;;;66.33;;
75486;SDS011;65009;44.762;21.516;2023-02-28T05:18:21;82.00;;;44.43;;
75486;SDS011;65009;44.762;21.516;2023-02-28T05:20:48;71.80;;;39.53;;
75486;SDS011;65009;44.762;21.516;2023-02-28T05:23:14;69.50;;;37.73;;
75486;SDS011;65009;44.762;21.516;2023-02-28T05:25:41;68.63;;;36.97;;
75486;SDS011;65009;44.762;21.516;2023-02-28T05:28:07;68.57;;;38.97;;
75486;SDS011;65009;44.762;21.516;2023-02-28T05:30:33;87.60;;;51.10;;
75486;SDS011;65009;44.762;21.516;2023-02-28T05:33:00;78.77;;;47.03;;
75486;SDS011;65009;44.762;21.516;2023-02-28T05:35:26;68.20;;;38.33;;
75486;SDS011;65009;44.762;21.516;2023-02-28T05:37:52;67.97;;;38.23;;
75486;SDS011;65009;44.762;21.516;2023-02-28T05:40:18;64.57;;;35.13;;
75486;SDS011;65009;44.762;21.516;2023-02-28T05:42:45;66.57;;;36.40;;
75486;SDS011;65009;44.762;21.516;2023-02-28T05:45:11;66.97;;;35.03;;
75486;SDS011;65009;44.762;21.516;2023-02-28T05:47:38;72.33;;;37.17;;
75486;SDS011;65009;44.762;21.516;2023-02-28T05:50:04;67.33;;;35.73;;
75486;SDS011;65009;44.762;21.516;2023-02-28T05:52:31;63.33;;;34.03;;
75486;SDS011;65009;44.762;21.516;2023-02-28T05:54:57;61.37;;;35.47;;
75486;SDS011;65009;44.762;21.516;2023-02-28T05:57:24;66.90;;;38.80;;
75486;SDS011;65009;44.762;21.516;2023-02-28T05:59:50;67.83;;;37.80;;
75486;SDS011;65009;44.762;21.516;2023-02-28T06:02:16;58.27;;;31.97;;
75486;SDS011;65009;44.762;21.516;2023-02-28T06:04:43;59.67;;;31.83;;
75486;SDS011;65009;44.762;21.516;2023-02-28T06:07:10;79.13;;;42.33;;
75486;SDS011;65009;44.762;21.516;2023-02-28T06:09:36;66.13;;;35.03;;
75486;SDS011;65009;44.762;21.516;2023-02-28T06:12:03;78.47;;;44.73;;
75486;SDS011;65009;44.762;21.516;2023-02-28T06:14:31;94.00;;;52.47;;
75486;SDS011;65009;44.762;21.516;2023-02-28T06:16:58;78.93;;;41.67;;
75486;SDS011;65009;44.762;21.516;2023-02-28T06:19:25;70.87;;;40.57;;
75486;SDS011;65009;44.762;21.516;2023-02-28T06:21:51;59.27;;;32.63;;
75486;SDS011;65009;44.762;21.516;2023-02-28T06:24:19;54.23;;;30.17;;
75486;SDS011;65009;44.762;21.516;2023-02-28T06:26:45;60.57;;;33.87;;
75486;SDS011;65009;44.762;21.516;2023-02-28T06:29:12;64.87;;;36.07;;
75486;SDS011;65009;44.762;21.516;2023-02-28T06:31:42;66.90;;;38.20;;
75486;SDS011;65009;44.762;21.516;2023-02-28T06:34:09;64.13;;;35.03;;
75486;SDS011;65009;44.762;21.516;2023-02-28T06:36:40;75.10;;;40.70;;
75486;SDS011;65009;44.762;21.516;2023-02-28T06:39:06;86.87;;;50.93;;
75486;SDS011;65009;44.762;21.516;2023-02-28T06:41:33;67.77;;;39.07;;
75486;SDS011;65009;44.762;21.516;2023-02-28T06:44:11;57.60;;;32.60;;
75486;SDS011;65009;44.762;21.516;2023-02-28T06:46:38;51.90;;;28.80;;
75486;SDS011;65009;44.762;21.516;2023-02-28T06:49:04;61.37;;;31.60;;
75486;SDS011;65009;44.762;21.516;2023-02-28T06:51:34;55.40;;;30.40;;
75486;SDS011;65009;44.762;21.516;2023-02-28T06:54:00;61.27;;;33.67;;
75486;SDS011;65009;44.762;21.516;2023-02-28T06:56:26;61.80;;;34.03;;
75486;SDS011;65009;44.762;21.516;2023-02-28T06:58:52;59.03;;;29.90;;
75486;SDS011;65009;44.762;21.516;2023-02-28T07:01:19;65.70;;;35.40;;
75486;SDS011;65009;44.762;21.516;2023-02-28T07:03:47;70.97;;;38.37;;
75486;SDS011;65009;44.762;21.516;2023-02-28T07:06:26;64.30;;;34.57;;
75486;SDS011;65009;44.762;21.516;2023-02-28T07:08:52;79.10;;;44.37;;
75486;SDS011;65009;44.762;21.516;2023-02-28T07:11:19;83.07;;;44.90;;
75486;SDS011;65009;44.762;21.516;2023-02-28T07:13:47;79.60;;;45.53;;
75486;SDS011;65009;44.762;21.516;2023-02-28T07:16:14;74.70;;;40.03;;
75486;SDS011;65009;44.762;21.516;2023-02-28T07:18:40;77.03;;;43.77;;
75486;SDS011;65009;44.762;21.516;2023-02-28T07:21:07;117.07;;;70.20;;
75486;SDS011;65009;44.762;21.516;2023-02-28T07:23:34;137.13;;;86.17;;
75486;SDS011;65009;44.762;21.516;2023-02-28T07:26:00;103.33;;;59.83;;
75486;SDS011;65009;44.762;21.516;2023-02-28T07:28:26;99.83;;;57.83;;
75486;SDS011;65009;44.762;21.516;2023-02-28T07:30:53;62.27;;;35.47;;
75486;SDS011;65009;44.762;21.516;2023-02-28T07:33:19;66.80;;;39.97;;
75486;SDS011;65009;44.762;21.516;2023-02-28T07:35:45;60.67;;;35.70;;
75486;SDS011;65009;44.762;21.516;2023-02-28T07:38:11;60.73;;;36.67;;
75486;SDS011;65009;44.762;21.516;2023-02-28T07:40:39;58.83;;;32.60;;
75486;SDS011;65009;44.762;21.516;2023-02-28T07:43:05;68.07;;;41.07;;
75486;SDS011;65009;44.762;21.516;2023-02-28T07:45:31;75.23;;;45.30;;
75486;SDS011;65009;44.762;21.516;2023-02-28T07:47:59;62.17;;;36.80;;
75486;SDS011;65009;44.762;21.516;2023-02-28T07:50:26;61.27;;;36.17;;
75486;SDS011;65009;44.762;21.516;2023-02-28T07:52:57;62.73;;;37.90;;
75486;SDS011;65009;44.762;21.516;2023-02-28T07:55:23;56.13;;;33.57;;
75486;SDS011;65009;44.762;21.516;2023-02-28T07:57:49;59.97;;;35.20;;
75486;SDS011;65009;44.762;21.516;2023-02-28T08:00:15;53.63;;;31.27;;
75486;SDS011;65009;44.762;21.516;2023-02-28T08:02:41;49.50;;;29.60;;
75486;SDS011;65009;44.762;21.516;2023-02-28T08:05:08;50.90;;;29.53;;
75486;SDS011;65009;44.762;21.516;2023-02-28T08:07:34;56.47;;;32.10;;
75486;SDS011;65009;44.762;21.516;2023-02-28T08:10:00;57.60;;;33.03;;
75486;SDS011;65009;44.762;21.516;2023-02-28T08:12:26;76.50;;;46.60;;
75486;SDS011;65009;44.762;21.516;2023-02-28T08:14:53;97.40;;;55.10;;
75486;SDS011;65009;44.762;21.516;2023-02-28T08:17:19;67.17;;;39.37;;
75486;SDS011;65009;44.762;21.516;2023-02-28T08:19:45;59.40;;;34.97;;
75486;SDS011;65009;44.762;21.516;2023-02-28T08:22:12;52.67;;;30.57;;
75486;SDS011;65009;44.762;21.516;2023-02-28T08:24:38;55.80;;;32.17;;
75486;SDS011;65009;44.762;21.516;2023-02-28T08:27:05;51.70;;;30.30;;
75486;SDS011;65009;44.762;21.516;2023-02-28T08:29:31;47.83;;;28.83;;
75486;SDS011;65009;44.762;21.516;2023-02-28T08:31:57;46.83;;;27.10;;
75486;SDS011;65009;44.762;21.516;2023-02-28T08:34:25;50.73;;;28.20;;
75486;SDS011;65009;44.762;21.516;2023-02-28T08:36:51;45.60;;;26.37;;
75486;SDS011;65009;44.762;21.516;2023-02-28T08:39:18;47.37;;;27.33;;
75486;SDS011;65009;44.762;21.516;2023-02-28T08:41:45;48.57;;;26.67;;
75486;SDS011;65009;44.762;21.516;2023-02-28T08:44:11;51.07;;;30.07;;
75486;SDS011;65009;44.762;21.516;2023-02-28T08:46:37;57.93;;;35.20;;
75486;SDS011;65009;44.762;21.516;2023-02-28T08:49:04;65.90;;;40.40;;
75486;SDS011;65009;44.762;21.516;2023-02-28T08:51:30;55.97;;;35.37;;
75486;SDS011;65009;44.762;21.516;2023-02-28T08:53:59;59.63;;;36.30;;
75486;SDS011;65009;44.762;21.516;2023-02-28T08:56:26;60.30;;;36.00;;
75486;SDS011;65009;44.762;21.516;2023-02-28T08:58:54;63.43;;;40.43;;
75486;SDS011;65009;44.762;21.516;2023-02-28T09:01:21;70.50;;;42.47;;
75486;SDS011;65009;44.762;21.516;2023-02-28T09:03:48;46.00;;;26.30;;
75486;SDS011;65009;44.762;21.516;2023-02-28T09:06:15;55.40;;;33.10;;
75486;SDS011;65009;44.762;21.516;2023-02-28T09:08:41;52.03;;;33.17;;
75486;SDS011;65009;44.762;21.516;2023-02-28T09:11:08;53.40;;;31.80;;
75486;SDS011;65009;44.762;21.516;2023-02-28T09:13:34;49.00;;;30.03;;
75486;SDS011;65009;44.762;21.516;2023-02-28T09:16:01;44.13;;;25.87;;
75486;SDS011;65009;44.762;21.516;2023-02-28T09:18:28;42.17;;;25.23;;
75486;SDS011;65009;44.762;21.516;2023-02-28T09:20:54;44.23;;;26.40;;
75486;SDS011;65009;44.762;21.516;2023-02-28T09:23:38;43.90;;;25.27;;
75486;SDS011;65009;44.762;21.516;2023-02-28T09:26:04;45.23;;;25.43;;
75486;SDS011;65009;44.762;21.516;2023-02-28T09:28:31;42.87;;;23.77;;
75486;SDS011;65009;44.762;21.516;2023-02-28T09:30:58;50.73;;;31.50;;
75486;SDS011;65009;44.762;21.516;2023-02-28T09:33:24;62.80;;;37.57;;
75486;SDS011;65009;44.762;21.516;2023-02-28T09:35:51;46.80;;;25.73;;
75486;SDS011;65009;44.762;21.516;2023-02-28T09:38:23;49.77;;;25.37;;
75486;SDS011;65009;44.762;21.516;2023-02-28T09:40:53;47.00;;;25.97;;
75486;SDS011;65009;44.762;21.516;2023-02-28T09:43:20;44.53;;;25.73;;
75486;SDS011;65009;44.762;21.516;2023-02-28T09:46:31;49.53;;;27.73;;
75486;SDS011;65009;44.762;21.516;2023-02-28T09:48:39;48.90;;;28.60;;
75486;SDS011;65009;44.762;21.516;2023-02-28T09:51:27;48.90;;;27.53;;
75486;SDS011;65009;44.762;21.516;2023-02-28T09:53:54;45.77;;;25.60;;
75486;SDS011;65009;44.762;21.516;2023-02-28T09:56:25;44.40;;;26.83;;
75486;SDS011;65009;44.762;21.516;2023-02-28T09:59:00;47.33;;;26.15;;
75486;SDS011;65009;44.762;21.516;2023-02-28T10:01:30;44.10;;;25.43;;
75486;SDS011;65009;44.762;21.516;2023-02-28T10:03:58;45.57;;;25.70;;
75486;SDS011;65009;44.762;21.516;2023-02-28T10:06:28;52.50;;;29.60;;
75486;SDS011;65009;44.762;21.516;2023-02-28T10:11:40;45.77;;;25.20;;
75486;SDS011;65009;44.762;21.516;2023-02-28T10:14:13;45.83;;;25.57;;
75486;SDS011;65009;44.762;21.516;2023-02-28T10:16:41;53.07;;;27.90;;
75486;SDS011;65009;44.762;21.516;2023-02-28T10:26:43;60.33;;;35.10;;
75486;SDS011;65009;44.762;21.516;2023-02-28T10:29:09;51.80;;;30.83;;
75486;SDS011;65009;44.762;21.516;2023-02-28T10:31:36;55.30;;;31.47;;
75486;SDS011;65009;44.762;21.516;2023-02-28T10:34:02;46.40;;;27.37;;
75486;SDS011;65009;44.762;21.516;2023-02-28T10:36:29;50.93;;;29.53;;
75486;SDS011;65009;44.762;21.516;2023-02-28T10:38:55;51.83;;;30.07;;
75486;SDS011;65009;44.762;21.516;2023-02-28T10:41:29;47.87;;;28.13;;
75486;SDS011;65009;44.762;21.516;2023-02-28T10:44:12;45.67;;;27.17;;
75486;SDS011;65009;44.762;21.516;2023-02-28T10:46:39;47.57;;;27.73;;
75486;SDS011;65009;44.762;21.516;2023-02-28T10:49:07;49.87;;;30.40;;
75486;SDS011;65009;44.762;21.516;2023-02-28T10:51:39;46.60;;;27.63;;
75486;SDS011;65009;44.762;21.516;2023-02-28T10:54:06;43.90;;;26.73;;
75486;SDS011;65009;44.762;21.516;2023-02-28T10:56:40;44.07;;;26.53;;
75486;SDS011;65009;44.762;21.516;2023-02-28T11:01:51;52.00;;;30.90;;
75486;SDS011;65009;44.762;21.516;2023-02-28T11:06:58;41.30;;;24.03;;
75486;SDS011;65009;44.762;21.516;2023-02-28T11:09:32;46.57;;;27.17;;
75486;SDS011;65009;44.762;21.516;2023-02-28T11:12:00;48.70;;;28.27;;
75486;SDS011;65009;44.762;21.516;2023-02-28T11:14:30;47.80;;;27.77;;
75486;SDS011;65009;44.762;21.516;2023-02-28T11:17:03;48.07;;;26.80;;
75486;SDS011;65009;44.762;21.516;2023-02-28T11:19:39;43.30;;;25.30;;
75486;SDS011;65009;44.762;21.516;2023-02-28T11:22:06;45.40;;;26.23;;
75486;SDS011;65009;44.762;21.516;2023-02-28T11:24:37;48.07;;;29.07;;
75486;SDS011;65009;44.762;21.516;2023-02-28T11:27:14;45.00;;;26.90;;
75486;SDS011;65009;44.762;21.516;2023-02-28T11:29:50;50.43;;;28.27;;
75486;SDS011;65009;44.762;21.516;2023-02-28T11:32:20;69.40;;;37.00;;
75486;SDS011;65009;44.762;21.516;2023-02-28T11:34:47;49.57;;;27.43;;
75486;SDS011;65009;44.762;21.516;2023-02-28T11:37:25;44.07;;;25.73;;
75486;SDS011;65009;44.762;21.516;2023-02-28T11:39:53;38.50;;;23.67;;
75486;SDS011;65009;44.762;21.516;2023-02-28T11:45:07;39.60;;;24.23;;
75486;SDS011;65009;44.762;21.516;2023-02-28T11:50:14;42.20;;;25.10;;
75486;SDS011;65009;44.762;21.516;2023-02-28T11:53:02;57.80;;;32.67;;
75486;SDS011;65009;44.762;21.516;2023-02-28T12:01:00;37.10;;;21.60;;
75486;SDS011;65009;44.762;21.516;2023-02-28T12:11:13;40.07;;;23.70;;
75486;SDS011;65009;44.762;21.516;2023-02-28T12:13:48;43.40;;;23.70;;
75486;SDS011;65009;44.762;21.516;2023-02-28T12:16:26;50.30;;;29.53;;
75486;SDS011;65009;44.762;21.516;2023-02-28T12:21:40;48.67;;;27.20;;
75486;SDS011;65009;44.762;21.516;2023-02-28T12:24:14;42.90;;;23.83;;
75486;SDS011;65009;44.762;21.516;2023-02-28T12:26:45;45.67;;;26.37;;
75486;SDS011;65009;44.762;21.516;2023-02-28T12:34:28;42.10;;;25.87;;
75486;SDS011;65009;44.762;21.516;2023-02-28T12:36:58;45.13;;;26.70;;
75486;SDS011;65009;44.762;21.516;2023-02-28T12:39:26;44.47;;;26.23;;
75486;SDS011;65009;44.762;21.516;2023-02-28T12:41:58;46.10;;;25.10;;
75486;SDS011;65009;44.762;21.516;2023-02-28T12:44:30;43.07;;;25.47;;
75486;SDS011;65009;44.762;21.516;2023-02-28T12:46:59;48.93;;;26.77;;
75486;SDS011;65009;44.762;21.516;2023-02-28T12:51:52;47.20;;;25.00;;
75486;SDS011;65009;44.762;21.516;2023-02-28T13:02:09;44.57;;;27.30;;
75486;SDS011;65009;44.762;21.516;2023-02-28T13:10:08;51.03;;;30.33;;
75486;SDS011;65009;44.762;21.516;2023-02-28T13:12:36;48.40;;;29.30;;
75486;SDS011;65009;44.762;21.516;2023-02-28T13:15:13;51.77;;;29.87;;
75486;SDS011;65009;44.762;21.516;2023-02-28T13:17:44;48.85;;;29.45;;
75486;SDS011;65009;44.762;21.516;2023-02-28T13:20:21;47.27;;;27.67;;
75486;SDS011;65009;44.762;21.516;2023-02-28T13:22:49;44.10;;;26.13;;
75486;SDS011;65009;44.762;21.516;2023-02-28T13:27:59;39.83;;;23.48;;
75486;SDS011;65009;44.762;21.516;2023-02-28T13:35:45;40.33;;;25.70;;
75486;SDS011;65009;44.762;21.516;2023-02-28T13:38:15;56.43;;;34.47;;
75486;SDS011;65009;44.762;21.516;2023-02-28T13:40:41;59.43;;;35.13;;
75486;SDS011;65009;44.762;21.516;2023-02-28T13:43:08;61.63;;;35.40;;
75486;SDS011;65009;44.762;21.516;2023-02-28T13:45:35;61.13;;;36.57;;
75486;SDS011;65009;44.762;21.516;2023-02-28T13:48:04;44.73;;;26.57;;
75486;SDS011;65009;44.762;21.516;2023-02-28T13:50:49;41.97;;;25.73;;
75486;SDS011;65009;44.762;21.516;2023-02-28T13:55:43;44.27;;;28.80;;
75486;SDS011;65009;44.762;21.516;2023-02-28T13:59:00;51.60;;;30.83;;
75486;SDS011;65009;44.762;21.516;2023-02-28T14:01:16;56.93;;;32.17;;
75486;SDS011;65009;44.762;21.516;2023-02-28T14:03:55;64.97;;;36.37;;
75486;SDS011;65009;44.762;21.516;2023-02-28T14:06:26;55.27;;;32.40;;
75486;SDS011;65009;44.762;21.516;2023-02-28T14:11:26;23.03;;;11.97;;
75486;SDS011;65009;44.762;21.516;2023-02-28T14:13:53;18.57;;;10.50;;
75486;SDS011;65009;44.762;21.516;2023-02-28T14:16:20;13.33;;;8.83;;
75486;SDS011;65009;44.762;21.516;2023-02-28T14:18:55;11.53;;;6.27;;
75486;SDS011;65009;44.762;21.516;2023-02-28T14:21:26;19.83;;;12.27;;
75486;SDS011;65009;44.762;21.516;2023-02-28T14:37:13;50.03;;;33.10;;
75486;SDS011;65009;44.762;21.516;2023-02-28T14:39:41;35.23;;;21.30;;
75486;SDS011;65009;44.762;21.516;2023-02-28T14:42:28;25.83;;;14.13;;
75486;SDS011;65009;44.762;21.516;2023-02-28T14:44:54;58.03;;;25.23;;
75486;SDS011;65009;44.762;21.516;2023-02-28T14:47:21;31.03;;;13.33;;
75486;SDS011;65009;44.762;21.516;2023-02-28T14:49:49;32.73;;;15.07;;
75486;SDS011;65009;44.762;21.516;2023-02-28T14:52:17;43.43;;;19.10;;
75486;SDS011;65009;44.762;21.516;2023-02-28T14:54:44;21.60;;;11.33;;
75486;SDS011;65009;44.762;21.516;2023-02-28T14:57:24;23.93;;;12.00;;
75486;SDS011;65009;44.762;21.516;2023-02-28T14:59:58;14.27;;;7.83;;
75486;SDS011;65009;44.762;21.516;2023-02-28T15:02:25;34.23;;;18.53;;
75486;SDS011;65009;44.762;21.516;2023-02-28T15:04:56;37.00;;;21.40;;
75486;SDS011;65009;44.762;21.516;2023-02-28T15:07:22;30.13;;;17.00;;
75486;SDS011;65009;44.762;21.516;2023-02-28T15:10:09;45.53;;;22.30;;
75486;SDS011;65009;44.762;21.516;2023-02-28T15:12:36;20.27;;;11.27;;
75486;SDS011;65009;44.762;21.516;2023-02-28T15:15:02;19.20;;;11.10;;
75486;SDS011;65009;44.762;21.516;2023-02-28T15:17:29;14.97;;;8.97;;
75486;SDS011;65009;44.762;21.516;2023-02-28T15:19:55;14.07;;;9.80;;
75486;SDS011;65009;44.762;21.516;2023-02-28T15:22:35;13.70;;;10.00;;
75486;SDS011;65009;44.762;21.516;2023-02-28T15:25:03;14.00;;;9.10;;
75486;SDS011;65009;44.762;21.516;2023-02-28T15:27:31;12.27;;;7.27;;
75486;SDS011;65009;44.762;21.516;2023-02-28T15:29:59;19.67;;;11.90;;
75486;SDS011;65009;44.762;21.516;2023-02-28T15:34:52;27.37;;;16.87;;
75486;SDS011;65009;44.762;21.516;2023-02-28T15:37:29;24.70;;;16.20;;
75486;SDS011;65009;44.762;21.516;2023-02-28T15:39:56;27.23;;;17.57;;
75486;SDS011;65009;44.762;21.516;2023-02-28T15:42:27;27.80;;;16.53;;
75486;SDS011;65009;44.762;21.516;2023-02-28T15:44:53;21.30;;;12.60;;
75486;SDS011;65009;44.762;21.516;2023-02-28T15:47:27;14.33;;;9.20;;
75486;SDS011;65009;44.762;21.516;2023-02-28T15:49:55;14.50;;;8.47;;
75486;SDS011;65009;44.762;21.516;2023-02-28T15:52:24;16.53;;;9.03;;
75486;SDS011;65009;44.762;21.516;2023-02-28T15:54:52;16.37;;;9.33;;
75486;SDS011;65009;44.762;21.516;2023-02-28T15:57:22;16.40;;;10.07;;
75486;SDS011;65009;44.762;21.516;2023-02-28T15:59:51;30.80;;;15.88;;
75486;SDS011;65009;44.762;21.516;2023-02-28T16:02:19;14.87;;;8.77;;
75486;SDS011;65009;44.762;21.516;2023-02-28T16:05:12;12.80;;;6.87;;
75486;SDS011;65009;44.762;21.516;2023-02-28T16:07:42;10.80;;;6.57;;
75486;SDS011;65009;44.762;21.516;2023-02-28T16:10:09;16.37;;;10.03;;
75486;SDS011;65009;44.762;21.516;2023-02-28T16:12:37;10.37;;;5.80;;
75486;SDS011;65009;44.762;21.516;2023-02-28T16:15:08;14.57;;;9.27;;
75486;SDS011;65009;44.762;21.516;2023-02-28T16:17:36;10.57;;;5.75;;